Etusivu
METAR-TAF:

METAR-TAF

Lentoasemat :

Beja, Portugali

Leveyspiiri: 38-04-40N, Pituuspiiri: 007-55-57W, korkeus merenpinnasta: 193 m

Tämänhetkinen sää

Tämä raportti tehtiin 49 minuuttia sitten, kello 06.00 UTC
Tuuli 7 kn lännestä/luoteesta
Lämpötila 16°C
Kosteus 94%
Ilmanpaine 1014 hPa
Näkyvyys 10 km tai enemmän
ei pilviä alle 1500 m:ssä eikä cumulonimbus-pilviä

METAR: LPBJ 190600Z 30007KT CAVOK 16/15 Q1014

Aika: 07:49 (06:49 UTC)

Sääennuste

Tämä raportti tehtiin 1 tunti ja 40 minuuttia sitten, kello 05.09 UTC
Ennuste voimassa 19. päivästä klo 06 UTC - 20. päivään klo 06 UTC
Tuuli 8 kn pohjoisen/luoteesta
Näkyvyys 10 km tai enemmän
ei pilviä alle 1500 m:ssä eikä cumulonimbus-pilviä

TAF: LPBJ 190509Z 1906/2006 33008KT CAVOK

Säähavainnot ja -ennusteet yli 4000 lentoasemalta (METAR- ja TAF-raportit).

Käytössä olevat sääasemat on merkitty karttaan keltaisilla ja punaisilla pisteillä.

Aseta hiiri pisteen päälle nähdäksesi sääaseman nimen.

Klikkaa sitten nähdäksesi säähavainnot ja -ennusteet.

Kartan vaihtaminen: klikkaa mustalla rastilla varustettuja vihreitä pisteitä, niin voit zoomata sisään; viivalla varustettua vihreää pistettä, niin voit zoomata ulos tai vihreitä nuolia, niin pääset viereisille kartoille.


METAR-TAF: